sensor_id;sensor_type;location;lat;lon;timestamp;pressure;altitude;pressure_sealevel;temperature;humidity
9281;BME280;4679;47.966;7.958;2022-12-11T07:37:26;96543.25;;;-4.90;89.33
9281;BME280;4679;47.966;7.958;2022-12-11T07:39:28;96546.63;;;-4.98;88.96
9281;BME280;4679;47.966;7.958;2022-12-11T07:41:30;96548.59;;;-5.08;89.09
9281;BME280;4679;47.966;7.958;2022-12-11T07:43:32;96555.84;;;-5.12;89.52
9281;BME280;4679;47.966;7.958;2022-12-11T07:45:34;96546.94;;;-5.17;88.94
9281;BME280;4679;47.966;7.958;2022-12-11T07:47:36;96550.31;;;-5.17;89.23
9281;BME280;4679;47.966;7.958;2022-12-11T07:49:37;96545.00;;;-5.15;89.52
9281;BME280;4679;47.966;7.958;2022-12-11T07:51:41;96558.13;;;-5.09;89.55
9281;BME280;4679;47.966;7.958;2022-12-11T07:53:46;96550.31;;;-5.17;88.98
9281;BME280;4679;47.966;7.958;2022-12-11T07:55:48;96551.94;;;-5.16;89.06
9281;BME280;4679;47.966;7.958;2022-12-11T07:57:50;96558.13;;;-5.09;89.19
9281;BME280;4679;47.966;7.958;2022-12-11T07:59:52;96556.84;;;-5.05;89.53
9281;BME280;4679;47.966;7.958;2022-12-11T08:01:53;96556.81;;;-5.13;88.93
9281;BME280;4679;47.966;7.958;2022-12-11T08:03:56;96547.91;;;-5.18;88.37
9281;BME280;4679;47.966;7.958;2022-12-11T08:05:57;96551.47;;;-5.03;89.31
9281;BME280;4679;47.966;7.958;2022-12-11T08:07:59;96557.16;;;-4.91;89.52
9281;BME280;4679;47.966;7.958;2022-12-11T08:10:03;96553.91;;;-4.93;89.12
9281;BME280;4679;47.966;7.958;2022-12-11T08:12:05;96555.84;;;-4.87;89.49
9281;BME280;4679;47.966;7.958;2022-12-11T08:14:07;96543.25;;;-4.82;89.10
9281;BME280;4679;47.966;7.958;2022-12-11T08:16:11;96550.03;;;-4.81;88.75
9281;BME280;4679;47.966;7.958;2022-12-11T08:18:13;96551.81;;;-4.82;88.42
9281;BME280;4679;47.966;7.958;2022-12-11T08:20:14;96548.09;;;-4.71;89.18
9281;BME280;4679;47.966;7.958;2022-12-11T08:22:16;96550.97;;;-4.58;89.20
9281;BME280;4679;47.966;7.958;2022-12-11T08:24:18;96548.41;;;-4.50;88.86
9281;BME280;4679;47.966;7.958;2022-12-11T08:26:24;96551.94;;;-4.43;88.57
9281;BME280;4679;47.966;7.958;2022-12-11T08:28:26;96548.38;;;-4.34;88.51
9281;BME280;4679;47.966;7.958;2022-12-11T08:30:28;96550.31;;;-4.36;87.97
9281;BME280;4679;47.966;7.958;2022-12-11T08:32:29;96544.78;;;-4.25;88.03
9281;BME280;4679;47.966;7.958;2022-12-11T08:34:31;96548.03;;;-4.14;88.26
9281;BME280;4679;47.966;7.958;2022-12-11T08:36:33;96546.88;;;-4.20;88.18
9281;BME280;4679;47.966;7.958;2022-12-11T08:38:35;96548.66;;;-4.20;88.35
9281;BME280;4679;47.966;7.958;2022-12-11T08:40:37;96547.69;;;-4.28;88.89
9281;BME280;4679;47.966;7.958;2022-12-11T08:42:40;96552.59;;;-4.33;87.80
9281;BME280;4679;47.966;7.958;2022-12-11T08:44:42;96556.94;;;-4.41;88.23
9281;BME280;4679;47.966;7.958;2022-12-11T08:46:44;96551.78;;;-4.41;88.13
9281;BME280;4679;47.966;7.958;2022-12-11T08:48:46;96550.81;;;-4.32;88.01
9281;BME280;4679;47.966;7.958;2022-12-11T08:50:48;96550.13;;;-4.26;88.16
9281;BME280;4679;47.966;7.958;2022-12-11T08:52:49;96545.44;;;-4.22;87.24
9281;BME280;4679;47.966;7.958;2022-12-11T08:54:53;96545.28;;;-4.13;87.90
9281;BME280;4679;47.966;7.958;2022-12-11T08:56:54;96545.66;;;-3.93;88.08
9281;BME280;4679;47.966;7.958;2022-12-11T08:58:59;96538.34;;;-3.81;87.86
9281;BME280;4679;47.966;7.958;2022-12-11T09:01:05;96542.09;;;-3.84;87.66
9281;BME280;4679;47.966;7.958;2022-12-11T09:03:07;96542.22;;;-3.77;87.42
9281;BME280;4679;47.966;7.958;2022-12-11T09:05:09;96537.00;;;-3.69;87.18
9281;BME280;4679;47.966;7.958;2022-12-11T09:07:11;96533.88;;;-3.65;87.32
9281;BME280;4679;47.966;7.958;2022-12-11T09:09:12;96533.88;;;-3.57;87.42
9281;BME280;4679;47.966;7.958;2022-12-11T09:11:17;96534.44;;;-3.46;87.31
9281;BME280;4679;47.966;7.958;2022-12-11T09:13:19;96525.94;;;-3.32;87.23
9281;BME280;4679;47.966;7.958;2022-12-11T09:15:22;96524.22;;;-3.17;87.28
9281;BME280;4679;47.966;7.958;2022-12-11T09:17:24;96527.44;;;-3.15;86.81
9281;BME280;4679;47.966;7.958;2022-12-11T09:19:25;96531.91;;;-3.24;86.00
9281;BME280;4679;47.966;7.958;2022-12-11T09:21:29;96529.56;;;-3.19;87.09
9281;BME280;4679;47.966;7.958;2022-12-11T09:23:31;96525.44;;;-3.05;85.84
9281;BME280;4679;47.966;7.958;2022-12-11T09:25:32;96521.28;;;-2.91;86.23
9281;BME280;4679;47.966;7.958;2022-12-11T09:27:34;96518.28;;;-2.80;85.60
9281;BME280;4679;47.966;7.958;2022-12-11T09:29:37;96517.75;;;-2.75;86.24
9281;BME280;4679;47.966;7.958;2022-12-11T09:31:40;96522.16;;;-2.76;86.13
9281;BME280;4679;47.966;7.958;2022-12-11T09:33:42;96515.53;;;-2.64;86.30
9281;BME280;4679;47.966;7.958;2022-12-11T09:35:44;96504.72;;;-2.53;85.72
9281;BME280;4679;47.966;7.958;2022-12-11T09:38:44;96505.38;;;-2.36;85.59
9281;BME280;4679;47.966;7.958;2022-12-11T09:40:45;96504.22;;;-2.33;85.23
9281;BME280;4679;47.966;7.958;2022-12-11T09:42:52;96507.78;;;-2.34;84.78
9281;BME280;4679;47.966;7.958;2022-12-11T09:44:56;96511.22;;;-2.19;85.84
9281;BME280;4679;47.966;7.958;2022-12-11T09:47:00;96505.09;;;-2.12;85.44
9281;BME280;4679;47.966;7.958;2022-12-11T09:49:03;96489.97;;;-2.08;85.45
9281;BME280;4679;47.966;7.958;2022-12-11T09:51:14;96492.50;;;-2.00;85.25
9281;BME280;4679;47.966;7.958;2022-12-11T09:53:22;96487.00;;;-2.05;84.32
9281;BME280;4679;47.966;7.958;2022-12-11T09:55:36;96493.56;;;-2.09;84.51
9281;BME280;4679;47.966;7.958;2022-12-11T09:57:47;96484.31;;;-2.26;85.03
9281;BME280;4679;47.966;7.958;2022-12-11T10:00:02;96482.34;;;-2.39;84.15
9281;BME280;4679;47.966;7.958;2022-12-11T10:02:18;96478.69;;;-2.44;84.36
9281;BME280;4679;47.966;7.958;2022-12-11T10:04:37;96468.81;;;-2.49;84.25
9281;BME280;4679;47.966;7.958;2022-12-11T10:06:47;96473.28;;;-2.43;84.00
9281;BME280;4679;47.966;7.958;2022-12-11T10:08:59;96469.66;;;-2.34;84.80
9281;BME280;4679;47.966;7.958;2022-12-11T10:11:19;96462.47;;;-2.32;83.66
9281;BME280;4679;47.966;7.958;2022-12-11T10:13:30;96451.00;;;-2.23;84.60
9281;BME280;4679;47.966;7.958;2022-12-11T10:15:39;96451.53;;;-2.13;83.59
9281;BME280;4679;47.966;7.958;2022-12-11T10:17:44;96447.28;;;-1.84;83.87
9281;BME280;4679;47.966;7.958;2022-12-11T10:19:47;96442.81;;;-1.54;83.54
9281;BME280;4679;47.966;7.958;2022-12-11T10:21:50;96437.16;;;-1.36;83.51
9281;BME280;4679;47.966;7.958;2022-12-11T10:23:55;96434.81;;;-1.53;83.43
9281;BME280;4679;47.966;7.958;2022-12-11T10:26:03;96438.66;;;-1.70;83.47
9281;BME280;4679;47.966;7.958;2022-12-11T10:28:13;96429.09;;;-1.63;82.92
9281;BME280;4679;47.966;7.958;2022-12-11T10:30:17;96425.78;;;-1.35;83.11
9281;BME280;4679;47.966;7.958;2022-12-11T10:32:22;96427.31;;;-1.20;82.47
9281;BME280;4679;47.966;7.958;2022-12-11T10:34:29;96417.22;;;-1.08;82.48
9281;BME280;4679;47.966;7.958;2022-12-11T10:36:36;96412.16;;;-0.88;82.03
9281;BME280;4679;47.966;7.958;2022-12-11T10:38:40;96405.59;;;-0.84;82.50
9281;BME280;4679;47.966;7.958;2022-12-11T10:40:44;96402.78;;;-0.83;82.22
9281;BME280;4679;47.966;7.958;2022-12-11T10:42:52;96401.19;;;-0.84;82.37
9281;BME280;4679;47.966;7.958;2022-12-11T10:44:58;96397.22;;;-0.80;82.59
9281;BME280;4679;47.966;7.958;2022-12-11T10:47:02;96400.22;;;-0.76;82.17
9281;BME280;4679;47.966;7.958;2022-12-11T10:49:04;96394.44;;;-0.72;82.24
9281;BME280;4679;47.966;7.958;2022-12-11T10:51:06;96392.47;;;-0.69;81.86
9281;BME280;4679;47.966;7.958;2022-12-11T10:53:19;96389.72;;;-0.61;81.84
9281;BME280;4679;47.966;7.958;2022-12-11T10:55:24;96386.09;;;-0.60;81.60
9281;BME280;4679;47.966;7.958;2022-12-11T10:57:30;96385.16;;;-0.53;81.74
9281;BME280;4679;47.966;7.958;2022-12-11T10:59:36;96380.00;;;-0.46;81.59
9281;BME280;4679;47.966;7.958;2022-12-11T11:01:45;96379.56;;;-0.43;81.67
9281;BME280;4679;47.966;7.958;2022-12-11T11:03:56;96372.25;;;-0.26;81.53
9281;BME280;4679;47.966;7.958;2022-12-11T11:06:13;96375.69;;;-0.19;81.23
9281;BME280;4679;47.966;7.958;2022-12-11T11:08:18;96373.84;;;-0.25;81.12
9281;BME280;4679;47.966;7.958;2022-12-11T11:10:20;96379.72;;;-0.17;80.85
9281;BME280;4679;47.966;7.958;2022-12-11T11:12:25;96376.13;;;-0.09;80.91
9281;BME280;4679;47.966;7.958;2022-12-11T11:14:27;96368.13;;;-0.08;80.99
9281;BME280;4679;47.966;7.958;2022-12-11T11:16:30;96373.09;;;-0.13;80.87
9281;BME280;4679;47.966;7.958;2022-12-11T11:18:33;96365.47;;;-0.14;80.89
9281;BME280;4679;47.966;7.958;2022-12-11T11:20:35;96357.69;;;-0.08;80.71
9281;BME280;4679;47.966;7.958;2022-12-11T11:22:38;96359.72;;;0.04;80.69
9281;BME280;4679;47.966;7.958;2022-12-11T11:24:44;96356.34;;;0.10;80.57
9281;BME280;4679;47.966;7.958;2022-12-11T11:26:46;96354.16;;;0.20;80.43
9281;BME280;4679;47.966;7.958;2022-12-11T11:28:51;96354.16;;;0.33;80.05
9281;BME280;4679;47.966;7.958;2022-12-11T11:31:05;96353.81;;;0.43;79.89
9281;BME280;4679;47.966;7.958;2022-12-11T11:33:13;96351.81;;;0.45;79.88
9281;BME280;4679;47.966;7.958;2022-12-11T11:35:21;96351.38;;;0.41;79.62
9281;BME280;4679;47.966;7.958;2022-12-11T11:37:30;96354.00;;;0.48;79.77
9281;BME280;4679;47.966;7.958;2022-12-11T11:39:35;96356.81;;;0.53;79.58
9281;BME280;4679;47.966;7.958;2022-12-11T11:41:43;96354.22;;;0.59;79.43
9281;BME280;4679;47.966;7.958;2022-12-11T11:43:48;96341.97;;;0.66;79.36
9281;BME280;4679;47.966;7.958;2022-12-11T11:45:53;96343.38;;;0.76;79.59
9281;BME280;4679;47.966;7.958;2022-12-11T11:48:02;96336.13;;;0.78;79.43
9281;BME280;4679;47.966;7.958;2022-12-11T11:50:13;96345.59;;;0.72;79.01
9281;BME280;4679;47.966;7.958;2022-12-11T11:52:20;96353.81;;;0.69;79.22
9281;BME280;4679;47.966;7.958;2022-12-11T11:54:30;96350.59;;;0.67;79.21
9281;BME280;4679;47.966;7.958;2022-12-11T11:56:36;96343.56;;;0.67;79.37
9281;BME280;4679;47.966;7.958;2022-12-11T11:58:40;96346.00;;;0.69;79.07
9281;BME280;4679;47.966;7.958;2022-12-11T12:00:44;96332.94;;;0.82;79.32
9281;BME280;4679;47.966;7.958;2022-12-11T12:02:46;96335.56;;;0.89;78.90
9281;BME280;4679;47.966;7.958;2022-12-11T12:04:49;96334.53;;;0.90;78.47
9281;BME280;4679;47.966;7.958;2022-12-11T12:07:06;96331.91;;;1.03;78.89
9281;BME280;4679;47.966;7.958;2022-12-11T12:09:22;96330.72;;;0.99;78.27
9281;BME280;4679;47.966;7.958;2022-12-11T12:11:32;96325.69;;;0.97;78.17
9281;BME280;4679;47.966;7.958;2022-12-11T12:13:45;96332.72;;;0.97;78.62
9281;BME280;4679;47.966;7.958;2022-12-11T12:15:55;96332.34;;;0.87;78.56
9281;BME280;4679;47.966;7.958;2022-12-11T12:18:02;96331.72;;;0.85;78.67
9281;BME280;4679;47.966;7.958;2022-12-11T12:20:16;96332.75;;;0.70;78.44
9281;BME280;4679;47.966;7.958;2022-12-11T12:22:31;96329.91;;;0.79;78.27
9281;BME280;4679;47.966;7.958;2022-12-11T12:24:42;96331.94;;;0.90;78.25
9281;BME280;4679;47.966;7.958;2022-12-11T12:26:51;96337.75;;;0.85;78.43
9281;BME280;4679;47.966;7.958;2022-12-11T12:29:03;96332.13;;;0.68;78.19
9281;BME280;4679;47.966;7.958;2022-12-11T12:31:20;96335.75;;;0.54;78.36
9281;BME280;4679;47.966;7.958;2022-12-11T12:33:33;96337.31;;;0.29;78.56
9281;BME280;4679;47.966;7.958;2022-12-11T12:35:46;96342.94;;;0.26;78.86
9281;BME280;4679;47.966;7.958;2022-12-11T12:37:55;96338.53;;;0.46;78.61
9281;BME280;4679;47.966;7.958;2022-12-11T12:40:09;96342.75;;;0.47;78.25
9281;BME280;4679;47.966;7.958;2022-12-11T12:42:22;96335.94;;;0.40;78.81
9281;BME280;4679;47.966;7.958;2022-12-11T12:44:29;96337.72;;;0.32;78.66
9281;BME280;4679;47.966;7.958;2022-12-11T12:46:42;96340.69;;;0.16;78.36
9281;BME280;4679;47.966;7.958;2022-12-11T12:48:47;96339.09;;;0.22;78.84
9281;BME280;4679;47.966;7.958;2022-12-11T12:50:50;96340.13;;;0.34;78.82
9281;BME280;4679;47.966;7.958;2022-12-11T12:52:54;96339.53;;;0.32;78.83
9281;BME280;4679;47.966;7.958;2022-12-11T12:54:57;96342.53;;;0.29;78.83
9281;BME280;4679;47.966;7.958;2022-12-11T12:57:20;96342.34;;;0.37;78.89
9281;BME280;4679;47.966;7.958;2022-12-11T12:59:23;96345.25;;;-0.06;79.15
9281;BME280;4679;47.966;7.958;2022-12-11T13:01:27;96344.19;;;-0.24;79.05
9281;BME280;4679;47.966;7.958;2022-12-11T13:03:35;96347.28;;;-0.01;79.77
9281;BME280;4679;47.966;7.958;2022-12-11T13:05:39;96346.41;;;-0.15;79.39
9281;BME280;4679;47.966;7.958;2022-12-11T13:07:47;96351.72;;;-0.49;80.15
9281;BME280;4679;47.966;7.958;2022-12-11T13:10:02;96347.06;;;-0.54;80.33
9281;BME280;4679;47.966;7.958;2022-12-11T13:12:12;96352.22;;;-0.60;80.12
9281;BME280;4679;47.966;7.958;2022-12-11T13:14:27;96352.56;;;-0.77;80.09
9281;BME280;4679;47.966;7.958;2022-12-11T13:16:35;96354.56;;;-0.72;80.44
9281;BME280;4679;47.966;7.958;2022-12-11T13:18:38;96353.88;;;-0.53;80.29
9281;BME280;4679;47.966;7.958;2022-12-11T13:20:46;96349.13;;;-0.43;80.01
9281;BME280;4679;47.966;7.958;2022-12-11T13:22:56;96345.59;;;-0.22;79.84
9281;BME280;4679;47.966;7.958;2022-12-11T13:25:23;96352.69;;;-0.50;79.98
9281;BME280;4679;47.966;7.958;2022-12-11T13:27:36;96351.34;;;-0.74;80.67
9281;BME280;4679;47.966;7.958;2022-12-11T13:29:41;96351.09;;;-0.86;80.61
9281;BME280;4679;47.966;7.958;2022-12-11T13:31:43;96354.03;;;-0.95;80.88
9281;BME280;4679;47.966;7.958;2022-12-11T13:33:47;96361.56;;;-1.07;81.05
9281;BME280;4679;47.966;7.958;2022-12-11T13:36:03;96359.97;;;-1.08;81.19
9281;BME280;4679;47.966;7.958;2022-12-11T13:38:15;96359.16;;;-1.09;80.87
9281;BME280;4679;47.966;7.958;2022-12-11T13:40:20;96357.03;;;-1.26;81.31
9281;BME280;4679;47.966;7.958;2022-12-11T13:42:27;96357.66;;;-1.46;81.70
9281;BME280;4679;47.966;7.958;2022-12-11T13:44:33;96365.19;;;-1.51;81.66
9281;BME280;4679;47.966;7.958;2022-12-11T13:46:39;96364.97;;;-1.56;81.78
9281;BME280;4679;47.966;7.958;2022-12-11T13:48:45;96365.91;;;-1.63;81.36
9281;BME280;4679;47.966;7.958;2022-12-11T13:50:49;96369.03;;;-1.68;82.28
9281;BME280;4679;47.966;7.958;2022-12-11T13:52:53;96368.25;;;-1.68;82.15
9281;BME280;4679;47.966;7.958;2022-12-11T13:54:56;96371.78;;;-1.76;81.71
9281;BME280;4679;47.966;7.958;2022-12-11T13:57:02;96378.22;;;-1.72;82.32
9281;BME280;4679;47.966;7.958;2022-12-11T13:59:23;96382.97;;;-1.75;81.94
9281;BME280;4679;47.966;7.958;2022-12-11T14:01:26;96378.75;;;-1.77;82.60
9281;BME280;4679;47.966;7.958;2022-12-11T14:03:32;96388.50;;;-1.85;81.96
9281;BME280;4679;47.966;7.958;2022-12-11T14:05:35;96388.22;;;-1.90;82.53
9281;BME280;4679;47.966;7.958;2022-12-11T14:07:40;96385.63;;;-1.90;82.24
9281;BME280;4679;47.966;7.958;2022-12-11T14:09:44;96389.34;;;-1.78;82.46
9281;BME280;4679;47.966;7.958;2022-12-11T14:11:46;96384.63;;;-1.68;82.33
9281;BME280;4679;47.966;7.958;2022-12-11T14:13:49;96390.38;;;-1.58;81.77
9281;BME280;4679;47.966;7.958;2022-12-11T14:15:51;96391.22;;;-1.51;82.30
9281;BME280;4679;47.966;7.958;2022-12-11T14:17:54;96386.34;;;-1.39;81.29
9281;BME280;4679;47.966;7.958;2022-12-11T14:20:01;96396.53;;;-1.37;81.47
9281;BME280;4679;47.966;7.958;2022-12-11T14:22:05;96403.13;;;-1.42;81.57
9281;BME280;4679;47.966;7.958;2022-12-11T14:24:11;96395.28;;;-1.20;81.72
9281;BME280;4679;47.966;7.958;2022-12-11T14:26:20;96401.84;;;-1.03;81.75
9281;BME280;4679;47.966;7.958;2022-12-11T14:28:23;96405.09;;;-1.22;81.18
9281;BME280;4679;47.966;7.958;2022-12-11T14:30:29;96403.13;;;-1.42;81.16
9281;BME280;4679;47.966;7.958;2022-12-11T14:32:36;96414.22;;;-1.54;81.50
9281;BME280;4679;47.966;7.958;2022-12-11T14:34:43;96401.13;;;-1.61;81.68
9281;BME280;4679;47.966;7.958;2022-12-11T14:36:48;96397.41;;;-1.73;81.80
9281;BME280;4679;47.966;7.958;2022-12-11T14:38:53;96405.25;;;-1.88;81.67
9281;BME280;4679;47.966;7.958;2022-12-11T14:40:58;96411.88;;;-1.85;82.16
9281;BME280;4679;47.966;7.958;2022-12-11T14:43:04;96411.41;;;-1.74;81.94
9281;BME280;4679;47.966;7.958;2022-12-11T14:45:15;96413.25;;;-1.68;82.51
9281;BME280;4679;47.966;7.958;2022-12-11T14:47:21;96410.91;;;-1.63;81.66
9281;BME280;4679;47.966;7.958;2022-12-11T14:49:28;96421.09;;;-1.83;82.06
9281;BME280;4679;47.966;7.958;2022-12-11T14:51:34;96417.13;;;-2.00;82.03
9281;BME280;4679;47.966;7.958;2022-12-11T14:53:42;96419.53;;;-2.13;82.00
9281;BME280;4679;47.966;7.958;2022-12-11T14:55:47;96424.03;;;-2.22;82.28
9281;BME280;4679;47.966;7.958;2022-12-11T14:57:51;96425.56;;;-2.27;82.50
9281;BME280;4679;47.966;7.958;2022-12-11T14:59:55;96420.28;;;-2.34;82.61
9281;BME280;4679;47.966;7.958;2022-12-11T15:01:59;96426.81;;;-2.38;82.48
9281;BME280;4679;47.966;7.958;2022-12-11T15:04:05;96424.94;;;-2.44;83.04
9281;BME280;4679;47.966;7.958;2022-12-11T15:06:22;96423.25;;;-2.37;83.34
9281;BME280;4679;47.966;7.958;2022-12-11T15:08:27;96416.72;;;-2.33;83.00
9281;BME280;4679;47.966;7.958;2022-12-11T15:10:33;96415.63;;;-2.24;82.74
9281;BME280;4679;47.966;7.958;2022-12-11T15:12:42;96408.34;;;-2.14;82.57
9281;BME280;4679;47.966;7.958;2022-12-11T15:14:48;96408.41;;;-2.07;82.43
9281;BME280;4679;47.966;7.958;2022-12-11T15:16:53;96410.41;;;-2.09;83.16
9281;BME280;4679;47.966;7.958;2022-12-11T15:18:56;96409.06;;;-2.05;82.67
9281;BME280;4679;47.966;7.958;2022-12-11T15:21:00;96404.66;;;-2.04;82.47
9281;BME280;4679;47.966;7.958;2022-12-11T15:23:06;96403.53;;;-2.17;83.12
9281;BME280;4679;47.966;7.958;2022-12-11T15:25:17;96402.28;;;-2.35;83.13
9281;BME280;4679;47.966;7.958;2022-12-11T15:27:31;96398.25;;;-2.53;82.81
9281;BME280;4679;47.966;7.958;2022-12-11T15:29:34;96397.56;;;-2.61;83.62
9281;BME280;4679;47.966;7.958;2022-12-11T15:31:36;96401.31;;;-2.64;83.25
9281;BME280;4679;47.966;7.958;2022-12-11T15:33:44;96406.16;;;-2.75;83.05
9281;BME280;4679;47.966;7.958;2022-12-11T15:36:00;96403.72;;;-2.92;83.65
9281;BME280;4679;47.966;7.958;2022-12-11T15:38:03;96402.78;;;-2.99;84.04
9281;BME280;4679;47.966;7.958;2022-12-11T15:40:05;96407.25;;;-3.07;83.55
9281;BME280;4679;47.966;7.958;2022-12-11T15:42:10;96403.91;;;-3.16;83.76
9281;BME280;4679;47.966;7.958;2022-12-11T15:44:17;96412.59;;;-3.24;83.72
9281;BME280;4679;47.966;7.958;2022-12-11T15:46:20;96417.03;;;-3.32;84.62
9281;BME280;4679;47.966;7.958;2022-12-11T15:48:22;96409.81;;;-3.45;84.06
9281;BME280;4679;47.966;7.958;2022-12-11T15:50:26;96420.09;;;-3.51;84.04
9281;BME280;4679;47.966;7.958;2022-12-11T15:52:27;96410.41;;;-3.58;84.33
9281;BME280;4679;47.966;7.958;2022-12-11T15:54:29;96412.19;;;-3.58;84.06
9281;BME280;4679;47.966;7.958;2022-12-11T15:56:31;96408.31;;;-3.62;83.87
9281;BME280;4679;47.966;7.958;2022-12-11T15:58:32;96416.28;;;-3.64;84.36
9281;BME280;4679;47.966;7.958;2022-12-11T16:00:37;96411.38;;;-3.59;84.70
9281;BME280;4679;47.966;7.958;2022-12-11T16:02:39;96409.47;;;-3.65;84.38
9281;BME280;4679;47.966;7.958;2022-12-11T16:04:40;96412.59;;;-3.69;84.85
9281;BME280;4679;47.966;7.958;2022-12-11T16:06:42;96409.56;;;-3.81;84.79
9281;BME280;4679;47.966;7.958;2022-12-11T16:08:46;96413.34;;;-3.83;84.24
9281;BME280;4679;47.966;7.958;2022-12-11T16:10:48;96409.13;;;-3.84;84.56
9281;BME280;4679;47.966;7.958;2022-12-11T16:12:50;96410.91;;;-3.85;84.41
9281;BME280;4679;47.966;7.958;2022-12-11T16:14:51;96412.38;;;-3.82;84.82
9281;BME280;4679;47.966;7.958;2022-12-11T16:16:54;96407.75;;;-3.72;84.85
9281;BME280;4679;47.966;7.958;2022-12-11T16:18:56;96410.19;;;-3.71;84.95
9281;BME280;4679;47.966;7.958;2022-12-11T16:21:03;96411.91;;;-3.63;84.31
9281;BME280;4679;47.966;7.958;2022-12-11T16:23:05;96416.22;;;-3.56;84.36
9281;BME280;4679;47.966;7.958;2022-12-11T16:25:07;96408.78;;;-3.59;84.89
9281;BME280;4679;47.966;7.958;2022-12-11T16:27:08;96415.59;;;-3.58;84.66
9281;BME280;4679;47.966;7.958;2022-12-11T16:29:10;96412.06;;;-3.65;84.61
9281;BME280;4679;47.966;7.958;2022-12-11T16:31:13;96413.44;;;-3.77;84.36
9281;BME280;4679;47.966;7.958;2022-12-11T16:33:17;96412.25;;;-3.97;85.39
9281;BME280;4679;47.966;7.958;2022-12-11T16:35:19;96408.53;;;-3.95;84.69
9281;BME280;4679;47.966;7.958;2022-12-11T16:37:21;96410.16;;;-3.94;84.69
9281;BME280;4679;47.966;7.958;2022-12-11T16:39:23;96405.84;;;-4.01;84.89
9281;BME280;4679;47.966;7.958;2022-12-11T16:41:25;96405.50;;;-3.98;84.88
9281;BME280;4679;47.966;7.958;2022-12-11T16:43:26;96407.38;;;-3.92;84.67
9281;BME280;4679;47.966;7.958;2022-12-11T16:45:28;96399.78;;;-3.94;85.13
9281;BME280;4679;47.966;7.958;2022-12-11T16:47:30;96405.94;;;-3.95;84.49
9281;BME280;4679;47.966;7.958;2022-12-11T16:49:33;96399.13;;;-3.96;84.77
9281;BME280;4679;47.966;7.958;2022-12-11T16:51:35;96393.16;;;-3.96;84.94
9281;BME280;4679;47.966;7.958;2022-12-11T16:53:36;96389.59;;;-3.95;85.17
9281;BME280;4679;47.966;7.958;2022-12-11T16:55:38;96391.91;;;-4.00;84.93
9281;BME280;4679;47.966;7.958;2022-12-11T16:57:41;96387.56;;;-4.08;84.71
9281;BME280;4679;47.966;7.958;2022-12-11T16:59:43;96382.72;;;-4.11;84.93
9281;BME280;4679;47.966;7.958;2022-12-11T17:01:45;96380.81;;;-4.17;85.47
9281;BME280;4679;47.966;7.958;2022-12-11T17:03:46;96376.63;;;-4.18;84.80
9281;BME280;4679;47.966;7.958;2022-12-11T17:05:49;96378.22;;;-4.17;84.55
9281;BME280;4679;47.966;7.958;2022-12-11T17:07:51;96372.41;;;-4.19;84.29
9281;BME280;4679;47.966;7.958;2022-12-11T17:09:53;96378.56;;;-4.20;84.97
9281;BME280;4679;47.966;7.958;2022-12-11T17:11:55;96382.50;;;-4.32;84.78
9281;BME280;4679;47.966;7.958;2022-12-11T17:13:58;96378.25;;;-4.25;85.04
9281;BME280;4679;47.966;7.958;2022-12-11T17:16:03;96379.06;;;-4.25;84.95
9281;BME280;4679;47.966;7.958;2022-12-11T17:18:04;96374.59;;;-4.31;85.20
9281;BME280;4679;47.966;7.958;2022-12-11T17:20:08;96375.25;;;-4.37;84.58
9281;BME280;4679;47.966;7.958;2022-12-11T17:22:11;96377.25;;;-4.47;85.31
9281;BME280;4679;47.966;7.958;2022-12-11T17:24:12;96382.28;;;-4.53;85.05
9281;BME280;4679;47.966;7.958;2022-12-11T17:26:15;96380.47;;;-4.45;85.65
9281;BME280;4679;47.966;7.958;2022-12-11T17:28:17;96380.47;;;-4.45;85.05
9281;BME280;4679;47.966;7.958;2022-12-11T17:30:19;96370.63;;;-4.49;85.37
9281;BME280;4679;47.966;7.958;2022-12-11T17:32:21;96375.47;;;-4.54;84.45
9281;BME280;4679;47.966;7.958;2022-12-11T17:34:23;96376.50;;;-4.64;84.62
9281;BME280;4679;47.966;7.958;2022-12-11T17:36:25;96378.81;;;-4.77;85.27
9281;BME280;4679;47.966;7.958;2022-12-11T17:38:28;96371.66;;;-4.67;85.18
9281;BME280;4679;47.966;7.958;2022-12-11T17:40:30;96374.88;;;-4.65;84.88
9281;BME280;4679;47.966;7.958;2022-12-11T17:42:32;96373.09;;;-4.64;84.67
9281;BME280;4679;47.966;7.958;2022-12-11T17:44:35;96371.50;;;-4.73;85.14
9281;BME280;4679;47.966;7.958;2022-12-11T17:46:37;96374.88;;;-4.73;84.90
9281;BME280;4679;47.966;7.958;2022-12-11T17:48:39;96373.31;;;-4.74;85.23
9281;BME280;4679;47.966;7.958;2022-12-11T17:50:41;96377.97;;;-4.69;84.62
9281;BME280;4679;47.966;7.958;2022-12-11T17:52:43;96378.78;;;-4.69;85.18
9281;BME280;4679;47.966;7.958;2022-12-11T17:54:46;96378.94;;;-4.70;85.18
9281;BME280;4679;47.966;7.958;2022-12-11T17:56:48;96379.91;;;-4.71;84.82
9281;BME280;4679;47.966;7.958;2022-12-11T17:58:50;96381.25;;;-4.83;84.66
9281;BME280;4679;47.966;7.958;2022-12-11T18:00:53;96385.81;;;-4.93;85.08
9281;BME280;4679;47.966;7.958;2022-12-11T18:02:56;96385.16;;;-5.04;84.87
9281;BME280;4679;47.966;7.958;2022-12-11T18:04:58;96375.97;;;-5.14;84.51
9281;BME280;4679;47.966;7.958;2022-12-11T18:07:00;96378.75;;;-5.24;85.26
9281;BME280;4679;47.966;7.958;2022-12-11T18:09:02;96373.09;;;-5.27;84.66
9281;BME280;4679;47.966;7.958;2022-12-11T18:11:07;96380.03;;;-5.28;84.91
9281;BME280;4679;47.966;7.958;2022-12-11T18:13:09;96378.25;;;-5.27;85.43
9281;BME280;4679;47.966;7.958;2022-12-11T18:15:11;96376.31;;;-5.25;84.88
9281;BME280;4679;47.966;7.958;2022-12-11T18:17:14;96375.03;;;-5.21;85.11
9281;BME280;4679;47.966;7.958;2022-12-11T18:19:16;96378.72;;;-5.16;84.99
9281;BME280;4679;47.966;7.958;2022-12-11T18:21:20;96375.50;;;-5.10;85.08
9281;BME280;4679;47.966;7.958;2022-12-11T18:23:23;96379.69;;;-5.09;85.07
9281;BME280;4679;47.966;7.958;2022-12-11T18:25:25;96381.16;;;-5.06;84.93
9281;BME280;4679;47.966;7.958;2022-12-11T18:27:29;96384.19;;;-5.03;85.28
9281;BME280;4679;47.966;7.958;2022-12-11T18:29:30;96370.13;;;-4.92;84.30
9281;BME280;4679;47.966;7.958;2022-12-11T18:31:32;96368.19;;;-4.90;84.85
9281;BME280;4679;47.966;7.958;2022-12-11T18:33:35;96377.88;;;-4.92;84.73
9281;BME280;4679;47.966;7.958;2022-12-11T18:35:38;96378.69;;;-5.00;84.75
9281;BME280;4679;47.966;7.958;2022-12-11T18:37:39;96377.72;;;-4.99;85.19
9281;BME280;4679;47.966;7.958;2022-12-11T18:39:41;96377.56;;;-4.89;84.64
9281;BME280;4679;47.966;7.958;2022-12-11T18:41:43;96385.47;;;-4.99;84.72
9281;BME280;4679;47.966;7.958;2022-12-11T18:43:46;96383.91;;;-5.08;84.86
9281;BME280;4679;47.966;7.958;2022-12-11T18:45:48;96376.47;;;-5.11;84.35
9281;BME280;4679;47.966;7.958;2022-12-11T18:47:51;96373.22;;;-5.05;84.71
9281;BME280;4679;47.966;7.958;2022-12-11T18:49:55;96380.97;;;-5.05;85.08
9281;BME280;4679;47.966;7.958;2022-12-11T18:51:57;96374.03;;;-5.04;84.82
9281;BME280;4679;47.966;7.958;2022-12-11T18:53:58;96379.38;;;-5.06;84.35
9281;BME280;4679;47.966;7.958;2022-12-11T18:56:04;96385.50;;;-5.07;84.70
9281;BME280;4679;47.966;7.958;2022-12-11T18:58:06;96388.75;;;-5.05;84.86